12:27
Airports
History
Links
Donate
Help keep this website running!
PayPal
Bitcoin
Information on this page is community maintained and may be outdated or inaccurate and is intended for reference only or PC simulator navigating.
Always use approved charts for navigating.
NA16
Bolseth
Bolseth (NA16)
Webster, North Dakota, United States (58382)
4
Lat/Lng:48° 20' 45.02" N / 98° 45' 41.44" W
48.345839 / -98.761511
Elevation:1500'ft 457mMSL
ID / ICAO:NA16
Runways:1
Longest:(14-32) 370.1m 1,214ft Grass
Distance To
Airport ID:
Nearby VORs <50NM
Nearby NDBs
Nearby WeatherUpdated 05-28-17 11:56 GMT
Nearby weather at KDVL, Devils Lake Rgnl located 17.3 nautical miles from NA16
Altimeter: 29.79
Visibility: 10.0 statute miles
Wind: 12 knots (290°)
Temp: 12°c 54°f
Humidity: 81.9%

METAR: KDVL 281156Z AUTO 29012KT 10SM OVC075 12/09 A2979 RMK AO2 SLP105 70004 T01170089 10117 20067 58002

(Powered by phpweather)
Runway 14 / 32
Dimensions:370.1 x 18.3m 1214' x 60'ft
Surface:Grass
Runway 14 [A]Runway 32 [B]
Heading:147°TH 327°TH
Lat:
Lng:
48° 20' 50.04"N
98° 45' 46.16"W
48° 20' 39.99"N
98° 45' 36.72"W
User Notes and Comments
Google Map
Nearby Airports
4 Hofstad 5.7 NM
NA09 NNW 342°
(R) Anderson Private 12.7 NM
NA10 W 280°
(U) Devils Lake Rgnl 17.3 NM
KDVL (WX) SSW 203°
4 Lindseth Strip 20.2 NM
ND82 N 357°
(U) Cando Muni 23.7 NM
9D7 WNW 293°
4 R. Marquart Airstrip 23.9 NM
58ND SE 137°
(U) Lakota Muni 29.7 NM
5L0 SE 137°
VFR Chart
Flight Planning at SkyVector.com